Wolf Creek Observed Data For Previous 48 Hours

Caption
Day and Hour Reservoir Elevation (behind dam)* Tailwater Elevation (below dam)* Average Hourly Discharge*
7/21/2017 1 AM CDT 718.34 546.84 20
7/21/2017 2 AM CDT 718.34 546.14 20
7/21/2017 3 AM CDT 718.34 545.54 20
7/21/2017 4 AM CDT 718.34 544.84 20
7/21/2017 5 AM CDT 718.34 544.04 20
7/21/2017 6 AM CDT 718.34 543.94 20
7/21/2017 7 AM CDT 718.34 543.54 20
7/21/2017 8 AM CDT 718.34 543.24 20
7/21/2017 9 AM CDT 718.33 545.43 3,460
7/21/2017 10 AM CDT 718.32 545.92 3,470
7/21/2017 11 AM CDT 718.30 548.80 6,960
7/21/2017 12 PM CDT 718.28 551.18 10,520
7/21/2017 1 PM CDT 718.25 553.55 14,140
7/21/2017 2 PM CDT 718.22 555.12 17,770
7/21/2017 3 PM CDT 718.18 557.58 21,380
7/21/2017 4 PM CDT 718.14 558.34 21,440
7/21/2017 5 PM CDT 718.10 558.60 21,440
7/21/2017 6 PM CDT 718.06 558.86 21,740
7/21/2017 7 PM CDT 718.02 558.92 21,740
7/21/2017 8 PM CDT 718.00 557.00 17,820
7/21/2017 9 PM CDT 717.98 555.68 14,220
7/21/2017 10 PM CDT 717.96 554.26 10,640
7/21/2017 11 PM CDT 717.96 551.96 7,040
7/22/2017 12 AM CDT 717.96 548.86 3,500
7/22/2017 1 AM CDT 717.94 547.34 20
7/22/2017 2 AM CDT 717.94 546.34 20
7/22/2017 3 AM CDT 717.94 545.04 20
7/22/2017 4 AM CDT 717.94 544.94 20
7/22/2017 5 AM CDT 717.94 544.84 20
7/22/2017 6 AM CDT 717.94 544.64 20
7/22/2017 7 AM CDT 717.94 543.84 20
7/22/2017 8 AM CDT 717.94 543.34 20
7/22/2017 9 AM CDT 717.94 542.94 20
7/22/2017 10 AM CDT 717.94 542.54 20
7/22/2017 11 AM CDT 717.93 545.63 3,470
7/22/2017 12 PM CDT 717.91 546.01 3,470
7/22/2017 1 PM CDT 717.89 548.59 6,980
7/22/2017 2 PM CDT 717.85 552.55 14,140
7/22/2017 3 PM CDT 717.85 553.85 14,180
7/22/2017 4 PM CDT 717.83 555.73 17,770
7/22/2017 5 PM CDT 717.82 557.92 17,870
7/22/2017 6 PM CDT 717.81 558.31 17,870

Elevations are in feet above sea level. Discharges are in cubic feet per second and are reported at the end of the hour.